Time;durP1;ratioP1;P1;durP2;ratioP2;P2;SDS_P1;SDS_P2;PMS_P1;PMS_P2;Temp;Humidity;BMP_temperature;BMP_pressure;BME280_temperature;BME280_humidity;BME280_pressure;Samples;Min_cycle;Max_cycle;Signal;HPM_P1;HPM_P2
2021/09/04 00:00:07;;;;;;;19.60;11.80;;;;;;;7.31;85.57;97665.39;116275;1180;59582;-75
2021/09/04 00:02:56;;;;;;;15.40;9.80;;;;;;;7.24;85.64;97666.73;116091;1184;59562;-74
2021/09/04 00:05:25;;;;;;;17.00;10.60;;;;;;;7.20;85.50;97667.83;116305;1183;70570;-74
2021/09/04 00:07:55;;;;;;;16.80;9.40;;;;;;;7.17;86.61;97669.48;116301;1179;69110;-75
2021/09/04 00:10:26;;;;;;;16.10;9.50;;;;;;;7.13;87.16;97668.91;116248;1179;69272;-75
2021/09/04 00:12:57;;;;;;;;;;;;;;;7.11;87.15;97664.30;116221;1181;59512;-75
2021/09/04 00:15:30;;;;;;;18.90;10.10;;;;;;;7.08;87.22;97660.72;116311;1183;59567;-74
2021/09/04 00:18:01;;;;;;;17.60;9.40;;;;;;;7.04;87.02;97658.97;116236;1184;71355;-73
2021/09/04 00:20:31;;;;;;;17.40;10.70;;;;;;;6.99;86.49;97661.05;116149;1184;68493;-74
2021/09/04 00:23:01;;;;;;;20.30;12.70;;;;;;;6.99;86.36;97659.00;116283;1184;68260;-73
2021/09/04 00:25:31;;;;;;;;;;;;;;;7.03;86.32;97662.75;116362;1182;59570;-73
2021/09/04 00:28:01;;;;;;;30.30;15.70;;;;;;;7.10;86.72;97668.25;116325;1183;59481;-74
2021/09/04 00:30:30;;;;;;;22.50;14.00;;;;;;;7.14;87.06;97671.81;116332;1184;70410;-75
2021/09/04 00:33:00;;;;;;;19.70;11.10;;;;;;;7.11;87.02;97668.55;116337;1184;68510;-72
2021/09/04 00:35:30;;;;;;;15.10;9.40;;;;;;;7.04;85.83;97669.12;116085;1183;69100;-73
2021/09/04 00:38:00;;;;;;;10.80;6.50;;;;;;;6.96;85.83;97665.88;116287;1179;59553;-73
2021/09/04 00:40:29;;;;;;;13.90;8.30;;;;;;;6.87;85.89;97660.96;116162;1184;59531;-72
2021/09/04 00:42:59;;;;;;;15.00;10.00;;;;;;;6.83;86.40;97662.73;116234;1184;70778;-73
2021/09/04 00:45:28;;;;;;;18.30;9.60;;;;;;;6.79;85.89;97660.56;116315;1180;69106;-72
2021/09/04 00:48:03;;;;;;;20.20;10.70;;;;;;;6.79;85.89;97659.86;116308;1184;68462;-72
2021/09/04 00:50:35;;;;;;;17.60;10.10;;;;;;;6.80;86.79;97659.76;116304;1184;59504;-74
2021/09/04 00:53:05;;;;;;;15.20;10.20;;;;;;;6.80;86.29;97656.14;116366;1182;59537;-71
2021/09/04 00:55:34;;;;;;;16.10;11.60;;;;;;;6.81;87.61;97654.48;116322;1183;71176;-75
2021/09/04 00:58:04;;;;;;;20.80;11.30;;;;;;;6.81;87.62;97657.63;116268;1183;69137;-72
2021/09/04 01:00:35;;;;;;;18.00;10.80;;;;;;;6.82;87.17;97655.52;116261;1184;68425;-75
2021/09/04 01:03:06;;;;;;;17.00;9.80;;;;;;;6.83;86.90;97662.03;116327;1179;59528;-72
2021/09/04 01:05:36;;;;;;;15.60;9.90;;;;;;;6.82;87.57;97657.86;116275;1179;59618;-72
2021/09/04 01:08:07;;;;;;;21.40;11.50;;;;;;;6.83;87.94;97661.25;116314;1179;69894;-73
2021/09/04 01:10:37;;;;;;;17.20;10.90;;;;;;;6.84;87.86;97665.41;116198;1184;69020;-73
2021/09/04 01:13:07;;;;;;;14.40;10.60;;;;;;;6.83;87.21;97655.98;116283;1179;68298;-72
2021/09/04 01:15:37;;;;;;;18.80;11.40;;;;;;;6.83;86.99;97651.65;116325;1180;59493;-72
2021/09/04 01:18:07;;;;;;;15.30;10.20;;;;;;;6.81;86.22;97652.12;116303;1179;59543;-72
2021/09/04 01:20:37;;;;;;;14.80;10.20;;;;;;;6.78;87.51;97658.60;116321;1183;71330;-72
2021/09/04 01:23:06;;;;;;;14.00;8.60;;;;;;;6.75;87.84;97663.53;116314;1180;69147;-72
2021/09/04 01:25:40;;;;;;;17.60;9.90;;;;;;;6.72;88.03;97668.50;116300;1184;68502;-73
2021/09/04 01:28:10;;;;;;;14.60;10.20;;;;;;;6.70;88.08;97666.09;116304;1182;59641;-72
2021/09/04 01:30:39;;;;;;;19.30;11.10;;;;;;;6.71;87.36;97663.97;116214;1184;59626;-71
2021/09/04 01:33:10;;;;;;;16.50;10.80;;;;;;;6.71;86.89;97664.83;116207;1184;71339;-74
2021/09/04 01:35:40;;;;;;;16.40;10.80;;;;;;;6.71;87.43;97666.16;116220;1184;69006;-74
2021/09/04 01:38:10;;;;;;;19.90;12.60;;;;;;;6.71;88.21;97670.95;116228;1184;67509;-72
2021/09/04 01:40:40;;;;;;;17.10;12.70;;;;;;;6.72;87.43;97670.70;116178;1180;59530;-74
2021/09/04 01:43:10;;;;;;;18.50;12.90;;;;;;;6.74;87.28;97674.15;116236;1184;59538;-74
2021/09/04 01:45:40;;;;;;;19.90;13.20;;;;;;;6.76;87.54;97673.81;116178;1184;70654;-74
2021/09/04 01:48:10;;;;;;;21.50;11.80;;;;;;;6.75;86.74;97678.23;116211;1184;69234;-74
2021/09/04 01:50:41;;;;;;;13.30;9.40;;;;;;;6.69;86.54;97683.80;116066;1182;69732;-73
2021/09/04 01:53:11;;;;;;;13.20;8.40;;;;;;;6.60;86.32;97682.92;116221;1184;59583;-75
2021/09/04 01:55:40;;;;;;;16.10;9.70;;;;;;;6.51;86.71;97683.59;116247;1184;59587;-74
2021/09/04 01:58:10;;;;;;;15.40;10.00;;;;;;;6.45;86.54;97679.30;116202;1184;71349;-76
2021/09/04 02:00:40;;;;;;;16.40;10.50;;;;;;;6.44;87.46;97680.33;116207;1184;69140;-74
2021/09/04 02:03:10;;;;;;;14.50;9.40;;;;;;;6.47;88.93;97674.48;116206;1184;68585;-73
2021/09/04 02:05:40;;;;;;;14.30;9.90;;;;;;;6.48;88.88;97674.48;116146;1182;59551;-73
2021/09/04 02:08:10;;;;;;;18.70;12.20;;;;;;;6.47;88.79;97674.98;116059;1183;59549;-74
2021/09/04 02:10:41;;;;;;;19.20;12.20;;;;;;;6.47;87.56;97673.64;116252;1184;71786;-74
2021/09/04 02:13:11;;;;;;;;;;;;;;;6.50;88.46;97670.39;116191;1184;68378;-74
2021/09/04 02:15:42;;;;;;;15.40;10.00;;;;;;;6.51;89.58;97663.45;116244;1182;67398;-75
2021/09/04 02:18:15;;;;;;;22.10;13.30;;;;;;;6.51;89.40;97665.49;116217;1184;59497;-74
2021/09/04 02:20:45;;;;;;;24.70;15.30;;;;;;;6.53;88.95;97667.92;116035;1181;59506;-74
2021/09/04 02:23:18;;;;;;;21.50;13.50;;;;;;;6.55;88.14;97671.12;116254;1184;70580;-73
2021/09/04 02:25:49;;;;;;;27.20;12.70;;;;;;;6.57;88.10;97669.67;116276;1184;69072;-73
2021/09/04 02:28:21;;;;;;;20.90;11.40;;;;;;;6.56;87.75;97676.05;116313;1184;69223;-75
2021/09/04 02:30:51;;;;;;;17.70;10.40;;;;;;;6.52;87.15;97676.34;116300;1184;59545;-75
2021/09/04 02:33:22;;;;;;;15.80;9.80;;;;;;;6.43;86.88;97675.08;116318;1179;59559;-74
2021/09/04 02:35:54;;;;;;;16.60;9.90;;;;;;;6.37;87.05;97674.18;116362;1179;71322;-74
2021/09/04 02:38:23;;;;;;;18.10;11.00;;;;;;;6.36;88.09;97672.55;116334;1179;68400;-71
2021/09/04 02:40:53;;;;;;;17.30;11.40;;;;;;;6.33;87.33;97678.86;116338;1183;69043;-74
2021/09/04 02:43:29;;;;;;;20.70;11.10;;;;;;;6.30;87.32;97678.02;116379;1179;59549;-72
2021/09/04 02:45:59;;;;;;;16.50;10.40;;;;;;;6.29;86.98;97675.14;116332;1179;59500;-73
2021/09/04 02:48:28;;;;;;;19.90;11.10;;;;;;;6.28;87.63;97673.65;116337;1179;70557;-74
2021/09/04 02:50:58;;;;;;;21.30;10.90;;;;;;;6.30;88.27;97671.20;116340;1179;68490;-73
2021/09/04 02:53:28;;;;;;;17.00;11.10;;;;;;;6.32;88.93;97673.61;116314;1183;68450;-74
2021/09/04 02:55:59;;;;;;;19.00;11.80;;;;;;;6.33;88.51;97667.23;116278;1179;59548;-75
2021/09/04 02:58:28;;;;;;;17.20;10.40;;;;;;;6.35;88.73;97659.90;116359;1183;59495;-74
2021/09/04 03:00:59;;;;;;;18.50;11.60;;;;;;;6.36;88.74;97660.36;116306;1179;71328;-73
2021/09/04 03:03:30;;;;;;;16.40;11.10;;;;;;;6.36;88.54;97663.73;116379;1183;69183;-75
2021/09/04 03:06:03;;;;;;;21.60;12.30;;;;;;;6.35;87.66;97664.92;116301;1183;69223;-76
2021/09/04 03:08:35;;;;;;;14.40;10.40;;;;;;;6.34;87.34;97665.48;116339;1183;59523;-73
2021/09/04 03:11:05;;;;;;;19.50;10.80;;;;;;;6.30;87.45;97657.84;116396;1179;59551;-74
2021/09/04 03:13:36;;;;;;;17.90;10.90;;;;;;;6.28;87.15;97658.86;116356;1179;70522;-74
2021/09/04 03:16:06;;;;;;;;;;;;;;;6.26;87.74;97654.69;116140;1184;68455;-75
2021/09/04 03:18:38;;;;;;;14.30;9.60;;;;;;;6.24;87.52;97649.37;116336;1183;68288;-73
2021/09/04 03:21:09;;;;;;;;;;;;;;;6.22;88.21;97649.16;116366;1183;59566;-73
2021/09/04 03:23:39;;;;;;;16.70;10.20;;;;;;;6.20;87.74;97646.36;116321;1184;59544;-74
2021/09/04 03:26:08;;;;;;;14.80;9.00;;;;;;;6.19;87.71;97649.05;116313;1183;70770;-72
2021/09/04 03:28:37;;;;;;;14.90;9.70;;;;;;;6.16;88.17;97648.36;116320;1182;69182;-73
2021/09/04 03:31:07;;;;;;;18.60;11.40;;;;;;;6.12;88.45;97648.95;116331;1183;68437;-73
2021/09/04 03:33:37;;;;;;;16.70;10.20;;;;;;;6.09;88.63;97647.23;116291;1181;59527;-74
2021/09/04 03:36:06;;;;;;;17.80;11.20;;;;;;;6.08;88.33;97646.14;116262;1184;59539;-75
2021/09/04 03:38:37;;;;;;;17.20;12.30;;;;;;;6.06;87.55;97644.58;116211;1180;70672;-73
2021/09/04 03:41:07;;;;;;;21.90;12.80;;;;;;;6.06;87.59;97635.85;116322;1179;69339;-75
2021/09/04 03:43:37;;;;;;;23.60;13.00;;;;;;;6.08;87.89;97633.80;116352;1183;69257;-75
2021/09/04 03:46:08;;;;;;;21.00;13.50;;;;;;;6.11;87.58;97632.38;116168;1181;59491;-75
2021/09/04 03:48:40;;;;;;;21.30;13.30;;;;;;;6.12;87.57;97635.60;116176;1182;59504;-74
2021/09/04 03:51:09;;;;;;;19.80;12.10;;;;;;;6.12;87.68;97634.59;116339;1184;71171;-72
2021/09/04 03:53:38;;;;;;;18.30;12.90;;;;;;;6.11;88.60;97639.45;116309;1184;68011;-73
2021/09/04 03:56:08;;;;;;;18.10;11.90;;;;;;;6.09;88.27;97640.94;116294;1180;68406;-75
2021/09/04 03:58:38;;;;;;;17.90;11.10;;;;;;;6.07;87.88;97641.27;116199;1182;59585;-75
2021/09/04 04:01:07;;;;;;;19.80;11.40;;;;;;;6.04;88.23;97639.10;116346;1183;59546;-72
2021/09/04 04:03:38;;;;;;;14.70;10.10;;;;;;;6.02;88.56;97635.44;116342;1179;70547;-75
2021/09/04 04:06:08;;;;;;;26.80;16.70;;;;;;;6.02;88.78;97638.02;116352;1179;69178;-75
2021/09/04 04:08:38;;;;;;;18.90;12.70;;;;;;;6.05;89.43;97639.95;116289;1184;69210;-75
2021/09/04 04:11:10;;;;;;;17.60;10.10;;;;;;;6.07;88.86;97642.38;116309;1180;59533;-76
2021/09/04 04:13:40;;;;;;;18.10;10.60;;;;;;;6.14;89.48;97641.63;116352;1179;59566;-75
2021/09/04 04:16:10;;;;;;;19.20;11.20;;;;;;;6.23;89.15;97638.94;116307;1183;71340;-75
2021/09/04 04:18:41;;;;;;;16.70;11.60;;;;;;;6.35;88.98;97632.31;116222;1179;68303;-75
2021/09/04 04:21:12;;;;;;;15.30;10.80;;;;;;;6.55;88.64;97631.81;116343;1183;68226;-76
2021/09/04 04:23:42;;;;;;;19.30;10.30;;;;;;;6.79;88.46;97630.38;116336;1182;59555;-75
2021/09/04 04:26:12;;;;;;;13.20;8.70;;;;;;;7.07;87.81;97635.40;116257;1183;59553;-76
2021/09/04 04:28:42;;;;;;;13.10;8.10;;;;;;;7.34;86.56;97635.29;116345;1183;71317;-76
2021/09/04 04:31:14;;;;;;;13.60;7.80;;;;;;;7.60;85.60;97631.63;116179;1185;69152;-76
2021/09/04 04:33:44;;;;;;;11.80;7.60;;;;;;;7.83;85.88;97637.35;116138;1179;69246;-76
2021/09/04 04:36:13;;;;;;;10.60;6.60;;;;;;;7.99;86.03;97633.88;116311;1179;59553;-74
2021/09/04 04:38:45;;;;;;;15.10;7.50;;;;;;;8.15;85.00;97633.31;116358;1184;59501;-75
2021/09/04 04:41:15;;;;;;;11.80;7.30;;;;;;;8.37;83.23;97630.13;116309;1183;70595;-76
2021/09/04 04:43:44;;;;;;;10.50;6.80;;;;;;;8.71;82.95;97628.02;116283;1184;69302;-74
2021/09/04 04:46:16;;;;;;;14.80;7.70;;;;;;;9.06;82.16;97625.27;116193;1184;69007;-75
2021/09/04 04:48:45;;;;;;;11.20;6.70;;;;;;;9.32;79.05;97623.88;116262;1184;59547;-76
2021/09/04 04:51:14;;;;;;;9.90;6.40;;;;;;;9.64;79.00;97626.24;116192;1184;59540;-75
2021/09/04 04:53:43;;;;;;;10.80;6.00;;;;;;;9.90;77.16;97622.64;116252;1180;70435;-75
2021/09/04 04:56:14;;;;;;;11.10;5.80;;;;;;;10.07;75.94;97620.06;116288;1185;69138;-76
2021/09/04 04:58:43;;;;;;;11.80;6.80;;;;;;;10.30;75.84;97625.20;116143;1183;68279;-76
2021/09/04 05:01:12;;;;;;;12.40;6.80;;;;;;;10.60;75.59;97629.26;116281;1179;59544;-75
2021/09/04 05:03:43;;;;;;;10.30;6.80;;;;;;;10.87;74.26;97632.17;116217;1182;59606;-73
2021/09/04 05:06:14;;;;;;;15.30;7.50;;;;;;;11.07;73.32;97633.41;116345;1185;70604;-74
2021/09/04 05:08:44;;;;;;;11.60;6.20;;;;;;;11.11;73.72;97640.52;116317;1182;68992;-73
2021/09/04 05:11:14;;;;;;;10.80;5.90;;;;;;;11.14;73.49;97639.25;116360;1183;68208;-76
2021/09/04 05:13:44;;;;;;;13.10;6.50;;;;;;;11.26;71.35;97640.18;116306;1181;59897;-74
2021/09/04 05:16:15;;;;;;;13.60;6.10;;;;;;;11.42;70.09;97639.73;116254;1181;59507;-73
2021/09/04 05:18:44;;;;;;;13.30;6.20;;;;;;;11.45;69.88;97637.98;116200;1182;70363;-75
2021/09/04 05:21:14;;;;;;;19.10;6.90;;;;;;;11.74;69.81;97639.16;116284;1179;67645;-72
2021/09/04 05:23:44;;;;;;;11.10;6.10;;;;;;;12.04;68.82;97635.64;116296;1185;69135;-75
2021/09/04 05:26:14;;;;;;;13.70;6.10;;;;;;;12.25;68.34;97635.59;116310;1183;59541;-76
2021/09/04 05:28:43;;;;;;;13.80;6.10;;;;;;;12.60;69.08;97631.01;116192;1184;59590;-75
2021/09/04 05:31:13;;;;;;;10.90;5.80;;;;;;;12.97;68.29;97627.33;116218;1184;71392;-72
2021/09/04 05:33:42;;;;;;;11.00;6.80;;;;;;;13.13;66.82;97628.04;116100;1185;69287;-72
2021/09/04 05:36:11;;;;;;;13.00;6.10;;;;;;;13.17;65.04;97628.95;116054;1184;68451;-76
2021/09/04 05:38:40;;;;;;;9.90;6.00;;;;;;;13.34;65.63;97631.05;116140;1184;59529;-75
2021/09/04 05:41:09;;;;;;;12.90;6.30;;;;;;;13.48;65.90;97629.40;116146;1179;59552;-72
2021/09/04 05:43:38;;;;;;;13.70;5.80;;;;;;;13.51;65.15;97627.59;116137;1184;71352;-75
2021/09/04 05:46:07;;;;;;;10.50;6.00;;;;;;;13.69;65.30;97628.37;116177;1184;69055;-77
2021/09/04 05:48:36;;;;;;;11.00;6.40;;;;;;;13.95;64.98;97633.77;116169;1184;69055;-77
2021/09/04 05:51:05;;;;;;;11.40;6.10;;;;;;;14.10;65.09;97633.89;116140;1184;59502;-75
2021/09/04 05:53:34;;;;;;;12.20;6.10;;;;;;;14.12;64.88;97636.61;116192;1180;59525;-77
2021/09/04 05:56:03;;;;;;;11.90;6.10;;;;;;;14.20;65.35;97633.92;116159;1182;71348;-74
2021/09/04 05:58:32;;;;;;;10.80;6.00;;;;;;;14.37;64.58;97632.17;116209;1180;68239;-76
2021/09/04 06:01:02;;;;;;;10.80;5.70;;;;;;;14.52;64.37;97634.27;116148;1185;69266;-74
2021/09/04 06:03:31;;;;;;;11.90;5.60;;;;;;;14.50;64.07;97638.02;116120;1185;59639;-72
2021/09/04 06:06:01;;;;;;;8.70;6.00;;;;;;;14.92;64.06;97644.38;116183;1184;59485;-74
2021/09/04 06:08:30;;;;;;;10.80;5.90;;;;;;;15.24;63.04;97644.87;116168;1184;70910;-74
2021/09/04 06:10:58;;;;;;;15.10;6.10;;;;;;;15.35;61.94;97644.63;116197;1180;69290;-77
2021/09/04 06:13:28;;;;;;;14.70;5.80;;;;;;;15.37;61.66;97647.39;116110;1184;68686;-76
2021/09/04 06:15:58;;;;;;;14.20;5.60;;;;;;;15.70;61.14;97647.20;116147;1184;59553;-74
2021/09/04 06:18:27;;;;;;;;;;;;;;;16.07;60.17;97644.25;116231;1184;59613;-75
2021/09/04 06:20:56;;;;;;;8.80;5.00;;;;;;;16.33;59.42;97646.05;116144;1184;70546;-73
2021/09/04 06:23:25;;;;;;;8.20;5.40;;;;;;;16.54;58.81;97646.36;116123;1184;69180;-74
2021/09/04 06:25:55;;;;;;;8.50;4.60;;;;;;;16.52;58.35;97647.23;116126;1179;69111;-71
2021/09/04 06:28:24;;;;;;;8.50;4.90;;;;;;;16.67;58.27;97645.79;116158;1185;59485;-74
2021/09/04 06:30:53;;;;;;;9.30;4.90;;;;;;;16.87;57.26;97647.35;116208;1184;59505;-75
2021/09/04 06:33:22;;;;;;;10.80;5.40;;;;;;;17.01;56.04;97652.25;116166;1185;70707;-72
2021/09/04 06:35:51;;;;;;;9.30;4.80;;;;;;;17.12;55.15;97650.64;116208;1184;69057;-77
2021/09/04 06:38:20;;;;;;;8.70;5.30;;;;;;;16.89;56.50;97651.95;116158;1185;69059;-73
2021/09/04 06:40:49;;;;;;;9.00;5.40;;;;;;;16.77;57.61;97655.65;116139;1182;59564;-72
2021/09/04 06:43:19;;;;;;;9.10;5.40;;;;;;;16.76;57.37;97649.71;116238;1180;59561;-72
2021/09/04 06:45:47;;;;;;;8.40;5.20;;;;;;;16.66;57.47;97651.45;116194;1184;70621;-74
2021/09/04 06:48:17;;;;;;;12.50;5.50;;;;;;;16.69;57.66;97651.98;116317;1184;69195;-76
2021/09/04 06:50:46;;;;;;;9.70;4.90;;;;;;;16.91;57.15;97648.69;116224;1184;69162;-73
2021/09/04 06:53:15;;;;;;;8.70;5.40;;;;;;;17.36;56.21;97649.86;116218;1184;59569;-74
2021/09/04 06:55:44;;;;;;;8.50;5.00;;;;;;;17.54;55.41;97657.84;116079;1182;59626;-73
2021/09/04 06:58:13;;;;;;;9.00;5.40;;;;;;;17.73;55.22;97658.03;116332;1184;71221;-74
2021/09/04 07:00:42;;;;;;;11.60;5.60;;;;;;;18.13;54.61;97659.86;116495;1179;67557;-79
2021/09/04 07:03:11;;;;;;;9.50;5.30;;;;;;;18.34;54.15;97659.67;116307;1183;69053;-76
2021/09/04 07:05:40;;;;;;;9.70;5.10;;;;;;;18.58;53.06;97658.45;116363;1185;59121;-78
2021/09/04 07:08:09;;;;;;;10.60;5.80;;;;;;;18.47;53.44;97660.73;116378;1184;59555;-78
2021/09/04 07:10:39;;;;;;;12.20;6.40;;;;;;;18.70;52.42;97659.91;116392;1185;70767;-81
2021/09/04 07:13:08;;;;;;;10.60;5.60;;;;;;;18.69;51.76;97655.76;116234;1184;68281;-76
2021/09/04 07:15:38;;;;;;;10.00;5.80;;;;;;;18.67;52.45;97657.70;116141;1183;69368;-74
2021/09/04 07:18:07;;;;;;;9.50;5.20;;;;;;;18.98;51.83;97660.41;116040;1185;59569;-75
2021/09/04 07:20:36;;;;;;;9.90;5.00;;;;;;;19.06;51.63;97659.45;116212;1184;59540;-78
2021/09/04 07:23:06;;;;;;;13.00;5.90;;;;;;;19.71;51.19;97662.63;116121;1185;71230;-73
2021/09/04 07:25:34;;;;;;;9.40;5.80;;;;;;;20.00;49.86;97662.47;116368;1179;68356;-72
2021/09/04 07:28:06;;;;;;;12.80;5.80;;;;;;;20.55;49.06;97667.55;116611;1184;68527;-76
2021/09/04 07:30:35;;;;;;;9.20;5.90;;;;;;;20.92;47.93;97665.23;116351;1185;59503;-75
2021/09/04 07:33:04;;;;;;;9.70;5.40;;;;;;;21.47;47.57;97667.67;116344;1183;59602;-73
2021/09/04 07:35:33;;;;;;;10.10;5.40;;;;;;;21.91;45.88;97668.35;116299;1183;70077;-76
2021/09/04 07:38:03;;;;;;;11.30;5.70;;;;;;;22.22;44.91;97662.59;116361;1183;68417;-76
2021/09/04 07:40:32;;;;;;;9.80;5.70;;;;;;;21.99;43.23;97660.04;116341;1182;68216;-78
2021/09/04 07:43:03;;;;;;;10.40;5.60;;;;;;;21.62;44.47;97662.56;116312;1183;59597;-72
2021/09/04 07:45:32;;;;;;;8.30;5.90;;;;;;;21.96;44.00;97665.13;116348;1179;59497;-77
2021/09/04 07:48:01;;;;;;;11.00;5.90;;;;;;;22.06;44.04;97667.70;116139;1184;70377;-74
2021/09/04 07:50:30;;;;;;;17.40;7.20;;;;;;;22.39;43.96;97670.13;116318;1183;69245;-73
2021/09/04 07:52:59;;;;;;;11.80;7.40;;;;;;;22.54;42.65;97666.86;116277;1184;68258;-79
2021/09/04 07:55:28;;;;;;;10.80;6.60;;;;;;;22.08;43.82;97676.42;116331;1184;59479;-78
2021/09/04 07:57:57;;;;;;;12.20;7.10;;;;;;;21.79;44.14;97676.70;116169;1184;59533;-80
2021/09/04 08:00:26;;;;;;;9.20;6.60;;;;;;;21.81;44.58;97676.65;116327;1182;71965;-79
2021/09/04 08:02:55;;;;;;;12.10;7.80;;;;;;;21.92;44.84;97679.33;116298;1183;68340;-76
2021/09/04 08:05:25;;;;;;;11.70;6.60;;;;;;;22.29;44.32;97679.20;116153;1184;69549;-75
2021/09/04 08:07:54;;;;;;;12.60;7.10;;;;;;;22.49;43.51;97675.70;116310;1182;59551;-79
2021/09/04 08:10:23;;;;;;;12.80;7.90;;;;;;;22.46;42.89;97675.45;116178;1184;59602;-74
2021/09/04 08:12:52;;;;;;;13.30;7.20;;;;;;;22.40;42.89;97673.61;116342;1179;71461;-73
2021/09/04 08:15:21;;;;;;;9.70;7.00;;;;;;;22.38;43.11;97671.40;116313;1179;68427;-79
2021/09/04 08:17:50;;;;;;;9.40;6.40;;;;;;;22.33;43.55;97670.80;116102;1185;69049;-75
2021/09/04 08:20:19;;;;;;;13.50;7.20;;;;;;;22.73;42.28;97667.84;116320;1184;59632;-76
2021/09/04 08:22:48;;;;;;;15.30;6.60;;;;;;;23.09;41.68;97666.84;116354;1184;59505;-75
2021/09/04 08:25:17;;;;;;;9.50;5.80;;;;;;;23.59;40.90;97667.27;116311;1185;70425;-76
2021/09/04 08:27:46;;;;;;;10.00;5.70;;;;;;;24.02;39.02;97663.07;116097;1185;68257;-73
2021/09/04 08:30:16;;;;;;;13.40;7.00;;;;;;;24.03;38.39;97660.06;116037;1185;69182;-73
2021/09/04 08:32:45;;;;;;;12.80;7.20;;;;;;;23.96;39.25;97659.94;116036;1185;59573;-82
2021/09/04 08:35:14;;;;;;;10.90;6.30;;;;;;;24.33;38.98;97656.92;116118;1185;59530;-77
2021/09/04 08:37:43;;;;;;;9.00;6.40;;;;;;;24.44;38.49;97656.31;116113;1184;70389;-72
2021/09/04 08:40:13;;;;;;;10.90;6.30;;;;;;;24.88;37.74;97655.48;116091;1181;68385;-78
2021/09/04 08:42:42;;;;;;;11.20;7.10;;;;;;;24.63;37.36;97656.58;116081;1185;69006;-78
2021/09/04 08:45:11;;;;;;;10.70;6.50;;;;;;;24.79;37.10;97654.87;116035;1185;59523;-73
2021/09/04 08:47:41;;;;;;;10.80;6.70;;;;;;;25.21;35.95;97657.06;116121;1185;59551;-78
2021/09/04 08:50:11;;;;;;;8.70;5.50;;;;;;;24.64;36.43;97650.96;116132;1183;70565;-73
2021/09/04 08:52:41;;;;;;;20.60;7.30;;;;;;;25.04;36.52;97651.80;116056;1185;69061;-72
2021/09/04 08:55:10;;;;;;;12.40;7.50;;;;;;;25.44;35.42;97649.16;116066;1185;69226;-76
2021/09/04 08:57:39;;;;;;;15.80;8.50;;;;;;;25.20;35.16;97646.47;116061;1185;59541;-75
2021/09/04 09:00:09;;;;;;;18.50;7.90;;;;;;;24.99;35.59;97648.20;116011;1185;59514;-72
2021/09/04 09:02:43;;;;;;;;;;;;;;;25.31;35.74;97646.16;116050;1185;71266;-72
2021/09/04 09:05:12;;;;;;;9.30;6.80;;;;;;;25.52;34.67;97646.46;116136;1183;69122;-76
2021/09/04 09:07:44;;;;;;;13.60;7.80;;;;;;;25.57;35.07;97643.77;116064;1181;67526;-76
2021/09/04 09:10:19;;;;;;;10.90;7.70;;;;;;;25.65;35.00;97646.13;116062;1185;59617;-75
2021/09/04 09:12:49;;;;;;;12.90;9.80;;;;;;;26.05;33.50;97642.23;116112;1182;59628;-78
2021/09/04 09:15:26;;;;;;;14.00;9.20;;;;;;;26.30;32.48;97634.23;116080;1185;71507;-74
2021/09/04 09:18:10;;;;;;;12.40;9.10;;;;;;;25.45;33.55;97633.62;116071;1185;68390;-79
2021/09/04 09:20:55;;;;;;;10.30;8.50;;;;;;;25.06;35.02;97631.86;116123;1182;69019;-78
2021/09/04 09:23:25;;;;;;;20.30;15.00;;;;;;;25.94;33.55;97632.23;116006;1185;59495;-80
2021/09/04 09:25:54;;;;;;;11.30;7.60;;;;;;;25.98;33.18;97635.15;116086;1182;59553;-74
2021/09/04 09:28:24;;;;;;;13.30;8.60;;;;;;;24.84;34.05;97634.16;116160;1179;71474;-77
2021/09/04 09:30:56;;;;;;;;;;;;;;;25.83;34.02;97632.75;116326;1183;67706;-79
2021/09/04 09:33:27;;;;;;;11.40;8.50;;;;;;;26.57;33.12;97630.00;116280;1179;69364;-74
2021/09/04 09:35:59;;;;;;;11.50;8.40;;;;;;;27.49;32.47;97623.64;116345;1183;59553;-73
2021/09/04 09:38:31;;;;;;;14.60;8.00;;;;;;;27.57;31.54;97618.45;116148;1184;59599;-75
2021/09/04 09:41:03;;;;;;;12.20;7.20;;;;;;;28.24;31.58;97616.95;116259;1185;70802;-76
2021/09/04 09:43:35;;;;;;;10.60;6.60;;;;;;;27.76;29.91;97620.18;116275;1183;68530;-79
2021/09/04 09:46:09;;;;;;;9.70;7.00;;;;;;;26.89;30.62;97617.23;116307;1184;68842;-75
2021/09/04 09:48:39;;;;;;;9.10;6.40;;;;;;;27.43;31.92;97614.25;116284;1183;59564;-78
2021/09/04 09:51:09;;;;;;;13.90;6.30;;;;;;;28.43;31.27;97608.34;116296;1179;59545;-75
2021/09/04 09:53:40;;;;;;;14.10;5.90;;;;;;;29.20;29.90;97604.14;116293;1183;71371;-78
2021/09/04 09:56:09;;;;;;;9.50;5.90;;;;;;;29.77;27.98;97606.11;116262;1183;67725;-77
2021/09/04 09:58:39;;;;;;;9.40;6.10;;;;;;;30.01;27.39;97605.89;116229;1179;69401;-73
2021/09/04 10:01:09;;;;;;;10.80;6.10;;;;;;;29.63;27.46;97596.10;116256;1179;59548;-81
2021/09/04 10:03:39;;;;;;;11.10;7.30;;;;;;;29.59;28.35;97593.46;116287;1180;59572;-82
2021/09/04 10:06:09;;;;;;;9.10;6.30;;;;;;;29.41;28.11;97594.42;116240;1184;69977;-78
2021/09/04 10:08:39;;;;;;;8.90;6.90;;;;;;;29.73;28.17;97589.48;116278;1183;69287;-78
2021/09/04 10:11:09;;;;;;;10.60;6.80;;;;;;;29.72;28.13;97590.11;116288;1183;68494;-80
2021/09/04 10:13:38;;;;;;;8.90;6.80;;;;;;;29.73;29.00;97590.69;116240;1184;59591;-81
2021/09/04 10:16:08;;;;;;;9.90;6.60;;;;;;;29.44;29.35;97588.29;116118;1184;59508;-81
2021/09/04 10:18:39;;;;;;;9.40;6.90;;;;;;;29.08;28.93;97582.50;116347;1185;71124;-80
2021/09/04 10:21:13;;;;;;;11.80;6.90;;;;;;;29.82;27.84;97576.80;116161;1185;68968;-81
2021/09/04 10:23:50;;;;;;;9.20;6.30;;;;;;;29.44;27.81;97575.27;116194;1185;69322;-76
2021/09/04 10:26:34;;;;;;;8.30;6.00;;;;;;;29.55;29.19;97578.06;116308;1179;59552;-78
2021/09/04 10:29:07;;;;;;;9.10;6.10;;;;;;;29.85;27.64;97574.70;116235;1185;59548;-76
2021/09/04 10:31:54;;;;;;;10.50;6.10;;;;;;;29.43;28.16;97572.80;116021;1182;71575;-78
2021/09/04 10:34:37;;;;;;;9.10;5.40;;;;;;;29.50;28.92;97576.05;116302;1184;68990;-80
2021/09/04 10:37:15;;;;;;;8.30;6.40;;;;;;;29.02;28.52;97570.50;116253;1185;68434;-73
2021/09/04 10:40:07;;;;;;;9.50;5.90;;;;;;;30.17;28.59;97567.84;116268;1179;59584;-81
2021/09/04 10:42:44;;;;;;;10.70;5.80;;;;;;;30.15;27.72;97567.11;116284;1185;59535;-79
2021/09/04 10:45:16;;;;;;;9.20;5.60;;;;;;;29.36;28.78;97570.39;116270;1185;71342;-76
2021/09/04 10:47:50;;;;;;;8.40;6.20;;;;;;;28.75;29.43;97564.08;116295;1179;69017;-77
2021/09/04 10:50:19;;;;;;;8.50;5.90;;;;;;;28.14;30.44;97560.16;116299;1179;69305;-76
2021/09/04 10:52:56;;;;;;;7.90;5.10;;;;;;;28.09;31.67;97560.31;116111;1182;59552;-80
2021/09/04 10:55:34;;;;;;;7.40;5.60;;;;;;;28.63;30.52;97559.38;116240;1185;59479;-75
2021/09/04 10:58:07;;;;;;;9.40;6.60;;;;;;;29.30;27.82;97564.86;116278;1184;71203;-74
2021/09/04 11:00:48;;;;;;;8.00;5.80;;;;;;;28.02;29.16;97564.72;116269;1179;69035;-78
2021/09/04 11:03:19;;;;;;;10.10;5.90;;;;;;;27.35;31.21;97565.06;116323;1185;68263;-81
2021/09/04 11:05:56;;;;;;;7.90;4.90;;;;;;;27.23;31.97;97563.83;116142;1181;59617;-74
2021/09/04 11:08:30;;;;;;;7.20;4.20;;;;;;;26.94;33.11;97567.39;116244;1179;59519;-77
2021/09/04 11:11:15;;;;;;;5.80;4.00;;;;;;;26.52;33.38;97563.33;116272;1184;70364;-81
2021/09/04 11:13:49;;;;;;;5.60;3.70;;;;;;;26.10;32.66;97567.90;116220;1184;67903;-79
2021/09/04 11:16:42;;;;;;;7.20;3.90;;;;;;;26.53;33.26;97566.70;116284;1184;68328;-81
2021/09/04 11:19:42;;;;;;;7.40;4.10;;;;;;;27.13;30.80;97564.27;116289;1184;59485;-81
2021/09/04 11:22:14;;;;;;;;;;;;;;;27.67;29.61;97558.13;116184;1184;59508;-75
2021/09/04 11:24:47;;;;;;;9.50;4.10;;;;;;;28.53;28.27;97555.94;116268;1183;70597;-75
2021/09/04 11:27:20;;;;;;;6.90;4.40;;;;;;;28.42;28.28;97556.58;116320;1183;69501;-73
2021/09/04 11:29:51;;;;;;;6.20;3.80;;;;;;;28.19;27.98;97555.43;116279;1184;68888;-78
2021/09/04 11:32:29;;;;;;;6.40;4.10;;;;;;;28.87;28.63;97553.80;116298;1182;59543;-76
2021/09/04 11:35:03;;;;;;;6.60;3.90;;;;;;;29.72;27.07;97552.17;116281;1179;59940;-79
2021/09/04 11:37:36;;;;;;;6.40;4.30;;;;;;;30.26;26.11;97553.59;116233;1183;70824;-75